createdAt,value
2018-05-16T00:00:11.889Z,928.76
2018-05-16T00:00:24.445Z,928.75
2018-05-16T00:00:37.485Z,928.77
2018-05-16T00:00:50.415Z,928.73
2018-05-16T00:01:02.469Z,928.71
2018-05-16T00:01:14.987Z,928.75
2018-05-16T00:01:26.986Z,928.72
2018-05-16T00:01:39.507Z,928.7
2018-05-16T00:01:51.532Z,928.69
2018-05-16T00:02:04.128Z,928.72
2018-05-16T00:02:16.158Z,928.69
2018-05-16T00:02:28.707Z,928.69
2018-05-16T00:02:41.706Z,928.66
2018-05-16T00:02:54.663Z,928.66
2018-05-16T00:03:07.622Z,928.68
2018-05-16T00:03:20.195Z,928.65
2018-05-16T00:03:33.249Z,928.62
2018-05-16T00:03:45.744Z,928.64
2018-05-16T00:03:58.266Z,928.63
2018-05-16T00:04:10.922Z,928.66
2018-05-16T00:04:23.576Z,928.61
2018-05-16T00:04:36.168Z,928.61
2018-05-16T00:04:50.130Z,928.6
2018-05-16T00:05:02.739Z,928.59
2018-05-16T00:05:14.407Z,928.61
2018-05-16T00:05:27.592Z,928.6
2018-05-16T00:05:40.694Z,928.59
2018-05-16T00:05:53.230Z,928.61
2018-05-16T00:06:05.769Z,928.63
2018-05-16T00:06:18.284Z,928.62
2018-05-16T00:06:29.884Z,928.61
2018-05-16T00:06:42.854Z,928.64
2018-05-16T00:06:55.858Z,928.59
2018-05-16T00:07:08.849Z,928.62
2018-05-16T00:07:21.763Z,928.61
2018-05-16T00:07:34.713Z,928.58
2018-05-16T00:07:47.659Z,928.6
2018-05-16T00:08:00.622Z,928.58
2018-05-16T00:08:12.716Z,928.59
2018-05-16T00:08:24.764Z,928.58
2018-05-16T00:08:37.689Z,928.59
2018-05-16T00:08:50.626Z,928.57
2018-05-16T00:09:03.055Z,928.59
2018-05-16T00:09:15.585Z,928.62
2018-05-16T00:09:28.043Z,928.55
2018-05-16T00:09:40.999Z,928.57
2018-05-16T00:09:54.142Z,928.57
2018-05-16T00:10:06.185Z,928.53
2018-05-16T00:10:18.248Z,928.55
2018-05-16T00:10:31.227Z,928.53
2018-05-16T00:10:44.148Z,928.57
2018-05-16T00:10:57.119Z,928.53
2018-05-16T00:11:10.059Z,928.57
2018-05-16T00:11:21.608Z,928.52
2018-05-16T00:11:34.081Z,928.54
2018-05-16T00:11:46.164Z,928.55
2018-05-16T00:11:58.656Z,928.53
2018-05-16T00:12:11.194Z,928.52
2018-05-16T00:12:24.180Z,928.52
2018-05-16T00:12:37.176Z,928.52
2018-05-16T00:12:50.091Z,928.51
2018-05-16T00:13:02.629Z,928.52
2018-05-16T00:13:14.735Z,928.54
2018-05-16T00:13:27.256Z,928.54
2018-05-16T00:13:40.228Z,928.52
2018-05-16T00:13:53.144Z,928.52
2018-05-16T00:14:05.617Z,928.52
2018-05-16T00:14:17.208Z,928.51
2018-05-16T00:14:30.113Z,928.55
2018-05-16T00:14:42.221Z,928.54
2018-05-16T00:14:55.180Z,928.53
2018-05-16T00:15:07.697Z,928.47
2018-05-16T00:15:19.240Z,928.51
2018-05-16T00:15:32.204Z,928.53
2018-05-16T00:15:45.150Z,928.5
2018-05-16T00:15:57.618Z,928.52
2018-05-16T00:16:10.651Z,928.52
2018-05-16T00:16:23.625Z,928.48
2018-05-16T00:16:35.673Z,928.5
2018-05-16T00:16:48.614Z,928.48
2018-05-16T00:17:01.063Z,928.49
2018-05-16T00:17:13.986Z,928.48
2018-05-16T00:17:26.968Z,928.46
2018-05-16T00:17:39.453Z,928.5
2018-05-16T00:17:52.369Z,928.48
2018-05-16T00:18:05.295Z,928.48
2018-05-16T00:18:17.782Z,928.49
2018-05-16T00:18:30.300Z,928.48
2018-05-16T00:18:42.757Z,928.48
2018-05-16T00:18:55.710Z,928.46
2018-05-16T00:19:08.208Z,928.5
2018-05-16T00:19:21.135Z,928.48
2018-05-16T00:19:34.071Z,928.51
2018-05-16T00:19:47.048Z,928.48
2018-05-16T00:19:59.724Z,928.46
2018-05-16T00:20:11.766Z,928.47
2018-05-16T00:20:24.271Z,928.5
2018-05-16T00:20:37.214Z,928.5
2018-05-16T00:20:49.681Z,928.46
2018-05-16T00:21:02.199Z,928.46
2018-05-16T00:21:15.184Z,928.47
2018-05-16T00:21:26.736Z,928.49
2018-05-16T00:21:39.200Z,928.49
2018-05-16T00:21:51.691Z,928.49
2018-05-16T00:22:03.699Z,928.52
2018-05-16T00:22:16.638Z,928.48
2018-05-16T00:22:29.615Z,928.49
2018-05-16T00:22:42.122Z,928.48
2018-05-16T00:22:55.111Z,928.47
2018-05-16T00:23:08.057Z,928.5
2018-05-16T00:23:20.482Z,928.48
2018-05-16T00:23:33.406Z,928.44
2018-05-16T00:23:46.432Z,928.48
2018-05-16T00:23:58.436Z,928.43
2018-05-16T00:24:11.339Z,928.43
2018-05-16T00:24:24.245Z,928.44
2018-05-16T00:24:36.294Z,928.42
2018-05-16T00:24:48.777Z,928.41
2018-05-16T00:25:01.743Z,928.44
2018-05-16T00:25:14.316Z,928.43
2018-05-16T00:25:27.248Z,928.4
2018-05-16T00:25:39.674Z,928.42
2018-05-16T00:25:52.608Z,928.41
2018-05-16T00:26:04.588Z,928.39
2018-05-16T00:26:17.044Z,928.38
2018-05-16T00:26:29.563Z,928.41
2018-05-16T00:26:42.509Z,928.39
2018-05-16T00:26:55.461Z,928.36
2018-05-16T00:27:08.000Z,928.38
2018-05-16T00:27:20.485Z,928.38
2018-05-16T00:27:32.489Z,928.37
2018-05-16T00:27:45.036Z,928.39
2018-05-16T00:27:57.991Z,928.39
2018-05-16T00:28:10.993Z,928.36
2018-05-16T00:28:23.956Z,928.38
2018-05-16T00:28:36.463Z,928.4
2018-05-16T00:28:49.402Z,928.39
2018-05-16T00:29:01.894Z,928.38
2018-05-16T00:29:14.863Z,928.41
2018-05-16T00:29:27.372Z,928.42
2018-05-16T00:29:39.813Z,928.39
2018-05-16T00:29:52.289Z,928.4
2018-05-16T00:30:05.431Z,928.43
2018-05-16T00:30:17.875Z,928.43
2018-05-16T00:30:30.392Z,928.46
2018-05-16T00:30:43.328Z,928.46
2018-05-16T00:30:55.757Z,928.45
2018-05-16T00:31:08.684Z,928.46
2018-05-16T00:31:21.653Z,928.44
2018-05-16T00:31:34.141Z,928.48
2018-05-16T00:31:46.651Z,928.48
2018-05-16T00:31:59.130Z,928.47
2018-05-16T00:32:12.123Z,928.46
2018-05-16T00:32:25.110Z,928.48
2018-05-16T00:32:38.087Z,928.46
2018-05-16T00:32:51.047Z,928.46
2018-05-16T00:33:03.069Z,928.47
2018-05-16T00:33:15.089Z,928.47
2018-05-16T00:33:28.003Z,928.46
2018-05-16T00:33:40.028Z,928.47
2018-05-16T00:33:52.481Z,928.46
2018-05-16T00:34:05.405Z,928.42
2018-05-16T00:34:17.942Z,928.45
2018-05-16T00:34:29.893Z,928.46
2018-05-16T00:34:42.405Z,928.43
2018-05-16T00:34:54.911Z,928.45
2018-05-16T00:35:08.605Z,928.47
2018-05-16T00:35:21.597Z,928.44
2018-05-16T00:35:34.097Z,928.45
2018-05-16T00:35:46.109Z,928.43
2018-05-16T00:35:59.061Z,928.43
2018-05-16T00:36:11.073Z,928.44
2018-05-16T00:36:24.089Z,928.44
2018-05-16T00:36:37.042Z,928.43
2018-05-16T00:36:49.049Z,928.45
2018-05-16T00:37:02.018Z,928.41
2018-05-16T00:37:14.478Z,928.41
2018-05-16T00:37:27.438Z,928.45
2018-05-16T00:37:40.406Z,928.43
2018-05-16T00:37:53.346Z,928.42
2018-05-16T00:38:04.871Z,928.44
2018-05-16T00:38:17.460Z,928.43
2018-05-16T00:38:30.433Z,928.43
2018-05-16T00:38:43.390Z,928.43
2018-05-16T00:38:56.334Z,928.45
2018-05-16T00:39:08.351Z,928.44
2018-05-16T00:39:20.811Z,928.43
2018-05-16T00:39:33.276Z,928.44
2018-05-16T00:39:46.287Z,928.45
2018-05-16T00:39:59.287Z,928.44
2018-05-16T00:40:12.240Z,928.45
2018-05-16T00:40:24.744Z,928.42
2018-05-16T00:40:36.789Z,928.47
2018-05-16T00:40:49.899Z,928.45
2018-05-16T00:41:02.390Z,928.5
2018-05-16T00:41:14.422Z,928.45
2018-05-16T00:41:26.418Z,928.48
2018-05-16T00:41:38.908Z,928.46
2018-05-16T00:41:51.871Z,928.51
2018-05-16T00:42:04.923Z,928.48
2018-05-16T00:42:16.978Z,928.5
2018-05-16T00:42:29.004Z,928.49
2018-05-16T00:42:41.577Z,928.48
2018-05-16T00:42:54.507Z,928.47
2018-05-16T00:43:07.472Z,928.5
2018-05-16T00:43:20.448Z,928.47
2018-05-16T00:43:32.926Z,928.52
2018-05-16T00:43:45.904Z,928.51
2018-05-16T00:43:58.330Z,928.53
2018-05-16T00:44:09.895Z,928.52
2018-05-16T00:44:22.809Z,928.51
2018-05-16T00:44:35.795Z,928.51
2018-05-16T00:44:48.305Z,928.53
2018-05-16T00:45:01.277Z,928.51
2018-05-16T00:45:14.193Z,928.54
2018-05-16T00:45:27.193Z,928.55
2018-05-16T00:45:39.648Z,928.53
2018-05-16T00:45:52.568Z,928.57
2018-05-16T00:46:05.062Z,928.54
2018-05-16T00:46:17.123Z,928.57
2018-05-16T00:46:29.618Z,928.54
2018-05-16T00:46:41.619Z,928.54
2018-05-16T00:46:54.543Z,928.55
2018-05-16T00:47:06.999Z,928.6
2018-05-16T00:47:19.929Z,928.6
2018-05-16T00:47:32.912Z,928.58
2018-05-16T00:47:45.842Z,928.63
2018-05-16T00:47:58.758Z,928.63
2018-05-16T00:48:11.234Z,928.61
2018-05-16T00:48:23.247Z,928.56
2018-05-16T00:48:36.237Z,928.64
2018-05-16T00:48:48.725Z,928.62
2018-05-16T00:49:01.437Z,928.6
2018-05-16T00:49:13.931Z,928.62
2018-05-16T00:49:26.415Z,928.66
2018-05-16T00:49:39.352Z,928.63
2018-05-16T00:49:52.266Z,928.62
2018-05-16T00:50:05.399Z,928.63
2018-05-16T00:50:17.819Z,928.64
2018-05-16T00:50:30.296Z,928.63
2018-05-16T00:50:43.416Z,928.62
2018-05-16T00:50:55.875Z,928.65
2018-05-16T00:51:08.404Z,928.63
2018-05-16T00:51:21.333Z,928.61
2018-05-16T00:51:33.851Z,928.66
2018-05-16T00:51:46.367Z,928.63
2018-05-16T00:51:59.275Z,928.64
2018-05-16T00:52:11.775Z,928.66
2018-05-16T00:52:24.273Z,928.63
2018-05-16T00:52:36.301Z,928.63
2018-05-16T00:52:49.259Z,928.62
2018-05-16T00:53:01.751Z,928.63
2018-05-16T00:53:13.753Z,928.63
2018-05-16T00:53:25.788Z,928.62
2018-05-16T00:53:38.735Z,928.62
2018-05-16T00:53:51.681Z,928.64
2018-05-16T00:54:04.642Z,928.65
2018-05-16T00:54:17.603Z,928.66
2018-05-16T00:54:29.695Z,928.62
2018-05-16T00:54:42.598Z,928.64
2018-05-16T00:54:55.518Z,928.72
2018-05-16T00:55:08.579Z,928.68
2018-05-16T00:55:21.525Z,928.7
2018-05-16T00:55:33.735Z,928.68
2018-05-16T00:55:45.811Z,928.71
2018-05-16T00:55:58.290Z,928.7
2018-05-16T00:56:11.023Z,928.68
2018-05-16T00:56:24.017Z,928.68
2018-05-16T00:56:36.517Z,928.67
2018-05-16T00:56:49.002Z,928.71
2018-05-16T00:57:01.992Z,928.68
2018-05-16T00:57:14.565Z,928.7
2018-05-16T00:57:27.042Z,928.68
2018-05-16T00:57:39.539Z,928.71
2018-05-16T00:57:52.699Z,928.74
2018-05-16T00:58:05.156Z,928.73
2018-05-16T00:58:18.059Z,928.7
2018-05-16T00:58:31.034Z,928.75
2018-05-16T00:58:43.934Z,928.74
2018-05-16T00:58:56.416Z,928.73
2018-05-16T00:59:08.468Z,928.73
2018-05-16T00:59:21.496Z,928.72
2018-05-16T00:59:33.062Z,928.71
2018-05-16T00:59:45.506Z,928.71
2018-05-16T00:59:58.464Z,928.73
2018-05-16T01:00:10.489Z,928.76
2018-05-16T01:00:23.432Z,928.7
2018-05-16T01:00:36.351Z,928.69
2018-05-16T01:00:49.283Z,928.73
2018-05-16T01:01:02.226Z,928.74
2018-05-16T01:01:15.194Z,928.74
2018-05-16T01:01:28.170Z,928.74
2018-05-16T01:01:41.159Z,928.77
2018-05-16T01:01:54.167Z,928.77
2018-05-16T01:02:07.245Z,928.76
2018-05-16T01:02:19.748Z,928.76
2018-05-16T01:02:32.284Z,928.77
2018-05-16T01:02:44.743Z,928.77
2018-05-16T01:02:57.672Z,928.78
2018-05-16T01:03:10.168Z,928.77
2018-05-16T01:03:22.647Z,928.78
2018-05-16T01:03:35.146Z,928.78
2018-05-16T01:03:47.637Z,928.77
2018-05-16T01:04:00.598Z,928.82
2018-05-16T01:04:13.591Z,928.79
2018-05-16T01:04:26.537Z,928.79
2018-05-16T01:04:38.138Z,928.78
2018-05-16T01:04:50.639Z,928.82
2018-05-16T01:05:02.652Z,928.83
2018-05-16T01:05:16.195Z,928.83
2018-05-16T01:05:28.775Z,928.84
2018-05-16T01:05:41.716Z,928.84
2018-05-16T01:05:54.610Z,928.85
2018-05-16T01:06:07.610Z,928.82
2018-05-16T01:06:20.556Z,928.81
2018-05-16T01:06:33.508Z,928.83
2018-05-16T01:06:46.015Z,928.85
2018-05-16T01:06:58.469Z,928.84
2018-05-16T01:07:11.371Z,928.86
2018-05-16T01:07:24.296Z,928.85
2018-05-16T01:07:36.288Z,928.83
2018-05-16T01:07:48.763Z,928.83
2018-05-16T01:08:01.689Z,928.84
2018-05-16T01:08:14.164Z,928.83
2018-05-16T01:08:26.198Z,928.82
2018-05-16T01:08:39.159Z,928.83
2018-05-16T01:08:51.649Z,928.82
2018-05-16T01:09:04.555Z,928.81
2018-05-16T01:09:16.154Z,928.84
2018-05-16T01:09:28.622Z,928.84
2018-05-16T01:09:41.568Z,928.81
2018-05-16T01:09:54.056Z,928.82
2018-05-16T01:10:06.924Z,928.81
2018-05-16T01:10:19.026Z,928.8
2018-05-16T01:10:31.962Z,928.78
2018-05-16T01:10:44.439Z,928.8
2018-05-16T01:10:56.928Z,928.81
2018-05-16T01:11:08.978Z,928.82
2018-05-16T01:11:21.476Z,928.8
2018-05-16T01:11:34.398Z,928.85
2018-05-16T01:11:46.876Z,928.84
2018-05-16T01:11:59.356Z,928.81
2018-05-16T01:12:11.534Z,928.84
2018-05-16T01:12:23.937Z,928.86
2018-05-16T01:12:36.404Z,928.85
2018-05-16T01:12:48.401Z,928.87
2018-05-16T01:13:00.884Z,928.86
2018-05-16T01:13:13.903Z,928.85
2018-05-16T01:13:25.946Z,928.86
2018-05-16T01:13:38.399Z,928.89
2018-05-16T01:13:50.889Z,928.89
2018-05-16T01:14:03.753Z,928.84
2018-05-16T01:14:16.276Z,928.87
2018-05-16T01:14:28.739Z,928.85
2018-05-16T01:14:41.644Z,928.87
2018-05-16T01:14:54.642Z,928.87
2018-05-16T01:15:07.102Z,928.86
2018-05-16T01:15:20.015Z,928.88
2018-05-16T01:15:32.691Z,928.91
2018-05-16T01:15:45.174Z,928.9
2018-05-16T01:15:57.672Z,928.9
2018-05-16T01:16:09.689Z,928.89
2018-05-16T01:16:21.674Z,928.89
2018-05-16T01:16:34.121Z,928.87
2018-05-16T01:16:46.641Z,928.88
2018-05-16T01:16:59.575Z,928.9
2018-05-16T01:17:12.088Z,928.9
2018-05-16T01:17:25.091Z,928.89
2018-05-16T01:17:37.544Z,928.89
2018-05-16T01:17:50.030Z,928.91
2018-05-16T01:18:02.498Z,928.9
2018-05-16T01:18:14.507Z,928.9
2018-05-16T01:18:27.478Z,928.91
2018-05-16T01:18:39.916Z,928.88
2018-05-16T01:18:52.437Z,928.89
2018-05-16T01:19:04.470Z,928.89
2018-05-16T01:19:16.936Z,928.91
2018-05-16T01:19:29.416Z,928.9
2018-05-16T01:19:41.885Z,928.91
2018-05-16T01:19:54.860Z,928.92
2018-05-16T01:20:07.798Z,928.91
2018-05-16T01:20:20.962Z,928.94
2018-05-16T01:20:33.437Z,928.89
2018-05-16T01:20:45.914Z,928.89
2018-05-16T01:20:58.915Z,928.91
2018-05-16T01:21:11.385Z,928.91
2018-05-16T01:21:24.400Z,928.92
2018-05-16T01:21:36.891Z,928.9
2018-05-16T01:21:49.380Z,928.93
2018-05-16T01:22:02.338Z,928.89
2018-05-16T01:22:14.897Z,928.9
2018-05-16T01:22:26.951Z,928.9
2018-05-16T01:22:39.958Z,928.91
2018-05-16T01:22:51.991Z,928.9
2018-05-16T01:23:04.464Z,928.93
2018-05-16T01:23:17.405Z,928.93
2018-05-16T01:23:29.886Z,928.94
2018-05-16T01:23:41.902Z,928.93
2018-05-16T01:23:54.824Z,928.91
2018-05-16T01:24:07.244Z,928.93
2018-05-16T01:24:19.750Z,928.95
2018-05-16T01:24:32.679Z,928.94
2018-05-16T01:24:45.142Z,928.95
2018-05-16T01:24:58.164Z,928.96
2018-05-16T01:25:10.641Z,928.95
2018-05-16T01:25:23.693Z,928.96
2018-05-16T01:25:36.178Z,928.97
2018-05-16T01:25:49.076Z,928.93
2018-05-16T01:26:01.545Z,928.98
2018-05-16T01:26:14.490Z,928.95
2018-05-16T01:26:27.003Z,928.95
2018-05-16T01:26:39.464Z,928.95
2018-05-16T01:26:51.499Z,928.93
2018-05-16T01:27:04.025Z,928.94
2018-05-16T01:27:16.553Z,928.93
2018-05-16T01:27:28.994Z,928.93
2018-05-16T01:27:41.536Z,928.95
2018-05-16T01:27:54.479Z,928.97
2018-05-16T01:28:06.960Z,928.95
2018-05-16T01:28:19.462Z,928.94
2018-05-16T01:28:32.412Z,928.93
2018-05-16T01:28:45.316Z,928.94
2018-05-16T01:28:57.797Z,928.96
2018-05-16T01:29:10.335Z,928.94
2018-05-16T01:29:22.864Z,928.95
2018-05-16T01:29:35.392Z,928.94
2018-05-16T01:29:47.958Z,928.96
2018-05-16T01:30:00.957Z,928.98
2018-05-16T01:30:12.990Z,928.99
2018-05-16T01:30:25.956Z,928.94
2018-05-16T01:30:38.959Z,928.94
2018-05-16T01:30:51.883Z,929
2018-05-16T01:31:03.909Z,929
2018-05-16T01:31:16.395Z,929.01
2018-05-16T01:31:29.338Z,928.98
2018-05-16T01:31:42.313Z,929.01
2018-05-16T01:31:55.237Z,929.01
2018-05-16T01:32:08.219Z,928.97
2018-05-16T01:32:21.205Z,929
2018-05-16T01:32:33.715Z,929.01
2018-05-16T01:32:46.670Z,929
2018-05-16T01:32:59.601Z,929
2018-05-16T01:33:12.093Z,929
2018-05-16T01:33:25.052Z,929
2018-05-16T01:33:38.063Z,929
2018-05-16T01:33:50.105Z,929.04
2018-05-16T01:34:02.988Z,929.07
2018-05-16T01:34:15.449Z,929.03
2018-05-16T01:34:27.468Z,929.02
2018-05-16T01:34:39.957Z,929
2018-05-16T01:34:52.881Z,929.01
2018-05-16T01:35:04.887Z,928.98
2018-05-16T01:35:17.360Z,928.98
2018-05-16T01:35:30.803Z,929.03
2018-05-16T01:35:43.269Z,929.02
2018-05-16T01:35:55.732Z,929.04
2018-05-16T01:36:08.184Z,929.04
2018-05-16T01:36:20.695Z,929.05
2018-05-16T01:36:33.201Z,929.03
2018-05-16T01:36:46.187Z,929.04
2018-05-16T01:36:59.092Z,929.08
2018-05-16T01:37:12.026Z,929.07
2018-05-16T01:37:23.582Z,929.08
2018-05-16T01:37:36.512Z,929.08
2018-05-16T01:37:49.468Z,929.07
2018-05-16T01:38:02.437Z,929.09
2018-05-16T01:38:15.371Z,929.09
2018-05-16T01:38:27.857Z,929.1
2018-05-16T01:38:40.345Z,929.12
2018-05-16T01:38:52.837Z,929.11
2018-05-16T01:39:05.347Z,929.1
2018-05-16T01:39:17.829Z,929.11
2018-05-16T01:39:30.797Z,929.13
2018-05-16T01:39:43.754Z,929.08
2018-05-16T01:39:56.984Z,929.11
2018-05-16T01:40:09.806Z,929.13
2018-05-16T01:40:21.385Z,929.12
2018-05-16T01:40:34.075Z,929.11
2018-05-16T01:40:47.152Z,929.11
2018-05-16T01:41:00.108Z,929.13
2018-05-16T01:41:11.660Z,929.13
2018-05-16T01:41:24.681Z,929.1
2018-05-16T01:41:37.639Z,929.12
2018-05-16T01:41:50.156Z,929.13
2018-05-16T01:42:03.093Z,929.14
2018-05-16T01:42:15.558Z,929.11
2018-05-16T01:42:28.525Z,929.11
2018-05-16T01:42:41.017Z,929.14
2018-05-16T01:42:53.503Z,929.11
2018-05-16T01:43:05.981Z,929.09
2018-05-16T01:43:18.925Z,929.09
2018-05-16T01:43:31.447Z,929.09
2018-05-16T01:43:44.400Z,929.11
2018-05-16T01:43:57.317Z,929.11
2018-05-16T01:44:10.261Z,929.14
2018-05-16T01:44:21.840Z,929.14
2018-05-16T01:44:34.848Z,929.09
2018-05-16T01:44:46.887Z,929.11
2018-05-16T01:44:59.444Z,929.1
2018-05-16T01:45:12.379Z,929.09
2018-05-16T01:45:24.872Z,929.1
2018-05-16T01:45:37.361Z,929.11
2018-05-16T01:45:50.335Z,929.12
2018-05-16T01:46:03.319Z,929.13
2018-05-16T01:46:15.355Z,929.09
2018-05-16T01:46:28.335Z,929.12
2018-05-16T01:46:40.850Z,929.07
2018-05-16T01:46:53.829Z,929.11
2018-05-16T01:47:05.351Z,929.11
2018-05-16T01:47:17.850Z,929.12
2018-05-16T01:47:30.805Z,929.09
2018-05-16T01:47:43.782Z,929.11
2018-05-16T01:47:55.820Z,929.1
2018-05-16T01:48:08.763Z,929.07
2018-05-16T01:48:21.237Z,929.06
2018-05-16T01:48:33.824Z,929.06
2018-05-16T01:48:46.818Z,929.05
2018-05-16T01:48:59.718Z,929.06
2018-05-16T01:49:12.177Z,929.02
2018-05-16T01:49:24.608Z,929.07
2018-05-16T01:49:37.052Z,929.07
2018-05-16T01:49:49.972Z,929.05
2018-05-16T01:50:01.981Z,929.05
2018-05-16T01:50:14.437Z,929.03
2018-05-16T01:50:26.967Z,929
2018-05-16T01:50:40.622Z,929.01
2018-05-16T01:50:53.621Z,928.98
2018-05-16T01:51:06.093Z,929
2018-05-16T01:51:19.075Z,929.03
2018-05-16T01:51:31.542Z,928.97
2018-05-16T01:51:44.464Z,929
2018-05-16T01:51:57.443Z,928.95
2018-05-16T01:52:09.969Z,928.96
2018-05-16T01:52:22.891Z,928.98
2018-05-16T01:52:35.870Z,928.95
2018-05-16T01:52:48.783Z,928.96
2018-05-16T01:53:01.344Z,928.93
2018-05-16T01:53:14.316Z,928.94
2018-05-16T01:53:26.786Z,928.9
2018-05-16T01:53:39.763Z,928.87
2018-05-16T01:53:51.325Z,928.91
2018-05-16T01:54:04.371Z,928.87
2018-05-16T01:54:16.812Z,928.89
2018-05-16T01:54:29.303Z,928.88
2018-05-16T01:54:42.313Z,928.85
2018-05-16T01:54:54.781Z,928.84
2018-05-16T01:55:07.751Z,928.87
2018-05-16T01:55:20.693Z,928.86
2018-05-16T01:55:33.756Z,928.86
2018-05-16T01:55:46.252Z,928.85
2018-05-16T01:55:57.787Z,928.85
2018-05-16T01:56:09.802Z,928.87
2018-05-16T01:56:22.270Z,928.88
2018-05-16T01:56:34.712Z,928.88
2018-05-16T01:56:47.188Z,928.8
2018-05-16T01:57:00.166Z,928.81
2018-05-16T01:57:13.123Z,928.81
2018-05-16T01:57:26.042Z,928.81
2018-05-16T01:57:37.569Z,928.78
2018-05-16T01:57:50.047Z,928.8
2018-05-16T01:58:02.494Z,928.77
2018-05-16T01:58:14.952Z,928.75
2018-05-16T01:58:27.906Z,928.74
2018-05-16T01:58:40.843Z,928.73
2018-05-16T01:58:53.295Z,928.71
2018-05-16T01:59:05.780Z,928.75
2018-05-16T01:59:18.722Z,928.7
2018-05-16T01:59:30.734Z,928.72
2018-05-16T01:59:43.215Z,928.68
2018-05-16T01:59:56.215Z,928.69
2018-05-16T02:00:08.660Z,928.67
2018-05-16T02:00:21.606Z,928.65
2018-05-16T02:00:34.535Z,928.65
2018-05-16T02:00:46.476Z,928.7
2018-05-16T02:00:58.976Z,928.68
2018-05-16T02:01:11.041Z,928.65
2018-05-16T02:01:23.935Z,928.63
2018-05-16T02:01:36.902Z,928.62
2018-05-16T02:01:49.835Z,928.61
2018-05-16T02:02:02.359Z,928.65
2018-05-16T02:02:15.306Z,928.62
2018-05-16T02:02:28.286Z,928.6
2018-05-16T02:02:41.246Z,928.63
2018-05-16T02:02:54.176Z,928.64
2018-05-16T02:03:06.618Z,928.63
2018-05-16T02:03:18.642Z,928.59
2018-05-16T02:03:31.166Z,928.61
2018-05-16T02:03:43.666Z,928.6
2018-05-16T02:03:56.636Z,928.57
2018-05-16T02:04:09.120Z,928.59
2018-05-16T02:04:22.009Z,928.59
2018-05-16T02:04:34.003Z,928.59
2018-05-16T02:04:46.930Z,928.58
2018-05-16T02:04:59.886Z,928.58
2018-05-16T02:05:12.373Z,928.57
2018-05-16T02:05:24.407Z,928.58
2018-05-16T02:05:38.173Z,928.57
2018-05-16T02:05:50.654Z,928.54
2018-05-16T02:06:02.712Z,928.54
2018-05-16T02:06:15.243Z,928.54
2018-05-16T02:06:28.205Z,928.55
2018-05-16T02:06:40.672Z,928.54
2018-05-16T02:06:53.183Z,928.55
2018-05-16T02:07:04.751Z,928.52
2018-05-16T02:07:17.676Z,928.54
2018-05-16T02:07:30.639Z,928.51
2018-05-16T02:07:43.597Z,928.49
2018-05-16T02:07:56.561Z,928.52
2018-05-16T02:08:09.081Z,928.51
2018-05-16T02:08:21.596Z,928.5
2018-05-16T02:08:34.534Z,928.55
2018-05-16T02:08:47.478Z,928.49
2018-05-16T02:09:00.425Z,928.54
2018-05-16T02:09:13.343Z,928.49
2018-05-16T02:09:25.418Z,928.52
2018-05-16T02:09:37.456Z,928.54
2018-05-16T02:09:49.903Z,928.52
2018-05-16T02:10:02.369Z,928.54
2018-05-16T02:10:13.899Z,928.52
2018-05-16T02:10:26.430Z,928.51
2018-05-16T02:10:39.584Z,928.51
2018-05-16T02:10:52.547Z,928.55
2018-05-16T02:11:05.046Z,928.52
2018-05-16T02:11:17.037Z,928.5
2018-05-16T02:11:29.534Z,928.54
2018-05-16T02:11:42.492Z,928.58
2018-05-16T02:11:55.490Z,928.57
2018-05-16T02:12:07.983Z,928.52
2018-05-16T02:12:19.974Z,928.54
2018-05-16T02:12:32.465Z,928.55
2018-05-16T02:12:45.431Z,928.55
2018-05-16T02:12:57.920Z,928.59
2018-05-16T02:13:09.944Z,928.6
2018-05-16T02:13:21.956Z,928.57
2018-05-16T02:13:33.480Z,928.58
2018-05-16T02:13:45.967Z,928.58
2018-05-16T02:13:58.949Z,928.6
2018-05-16T02:14:11.433Z,928.63
2018-05-16T02:14:24.384Z,928.6
2018-05-16T02:14:36.855Z,928.64
2018-05-16T02:14:48.392Z,928.6
2018-05-16T02:15:00.907Z,928.63
2018-05-16T02:15:13.390Z,928.63
2018-05-16T02:15:25.895Z,928.66
2018-05-16T02:15:38.363Z,928.64
2018-05-16T02:15:51.418Z,928.66
2018-05-16T02:16:03.895Z,928.65
2018-05-16T02:16:16.883Z,928.66
2018-05-16T02:16:29.340Z,928.67
2018-05-16T02:16:42.363Z,928.65
2018-05-16T02:16:54.397Z,928.69
2018-05-16T02:17:05.969Z,928.66
2018-05-16T02:17:18.902Z,928.72
2018-05-16T02:17:31.388Z,928.74
2018-05-16T02:17:44.376Z,928.7
2018-05-16T02:17:57.346Z,928.73
2018-05-16T02:18:09.381Z,928.73
2018-05-16T02:18:21.872Z,928.74
2018-05-16T02:18:34.867Z,928.69
2018-05-16T02:18:47.821Z,928.73
2018-05-16T02:19:00.278Z,928.73
2018-05-16T02:19:13.231Z,928.7
2018-05-16T02:19:25.342Z,928.71
2018-05-16T02:19:37.820Z,928.75
2018-05-16T02:19:50.259Z,928.73
2018-05-16T02:20:02.265Z,928.74
2018-05-16T02:20:14.722Z,928.73
2018-05-16T02:20:27.736Z,928.71
2018-05-16T02:20:40.249Z,928.72
2018-05-16T02:20:53.424Z,928.73
2018-05-16T02:21:05.481Z,928.8
2018-05-16T02:21:17.932Z,928.69
2018-05-16T02:21:29.055Z,928.73
2018-05-16T02:21:41.543Z,928.71
2018-05-16T02:21:54.079Z,928.69
2018-05-16T02:22:06.573Z,928.71
2018-05-16T02:22:19.057Z,928.69
2018-05-16T02:22:30.613Z,928.69
2018-05-16T02:22:43.037Z,928.71
2018-05-16T02:22:55.474Z,928.7
2018-05-16T02:23:07.955Z,928.68
2018-05-16T02:23:20.403Z,928.71
2018-05-16T02:23:33.323Z,928.68
2018-05-16T02:23:46.269Z,928.69
2018-05-16T02:23:58.752Z,928.69
2018-05-16T02:24:11.256Z,928.66
2018-05-16T02:24:23.695Z,928.68
2018-05-16T02:24:36.684Z,928.66
2018-05-16T02:24:48.703Z,928.65
2018-05-16T02:25:01.150Z,928.68
2018-05-16T02:25:13.637Z,928.66
2018-05-16T02:25:26.121Z,928.69
2018-05-16T02:25:38.594Z,928.67
2018-05-16T02:25:51.095Z,928.67
2018-05-16T02:26:03.592Z,928.65
2018-05-16T02:26:16.538Z,928.67
2018-05-16T02:26:29.027Z,928.66
2018-05-16T02:26:41.941Z,928.65
2018-05-16T02:26:54.409Z,928.68
2018-05-16T02:27:06.946Z,928.72
2018-05-16T02:27:19.001Z,928.68
2018-05-16T02:27:32.019Z,928.71
2018-05-16T02:27:44.487Z,928.68
2018-05-16T02:27:56.967Z,928.68
2018-05-16T02:28:09.006Z,928.7
2018-05-16T02:28:21.984Z,928.66
2018-05-16T02:28:33.998Z,928.72
2018-05-16T02:28:46.458Z,928.72
2018-05-16T02:28:58.905Z,928.73
2018-05-16T02:29:11.825Z,928.69
2018-05-16T02:29:24.793Z,928.7
2018-05-16T02:29:37.274Z,928.71
2018-05-16T02:29:50.222Z,928.72
2018-05-16T02:30:02.730Z,928.69
2018-05-16T02:30:15.711Z,928.7
2018-05-16T02:30:28.658Z,928.72
2018-05-16T02:30:41.619Z,928.71
2018-05-16T02:30:54.561Z,928.71
2018-05-16T02:31:06.598Z,928.71
2018-05-16T02:31:19.068Z,928.73
2018-05-16T02:31:32.034Z,928.72
2018-05-16T02:31:44.551Z,928.72
2018-05-16T02:31:57.479Z,928.71
2018-05-16T02:32:09.947Z,928.7
2018-05-16T02:32:21.975Z,928.7
2018-05-16T02:32:34.475Z,928.71
2018-05-16T02:32:47.433Z,928.68
2018-05-16T02:33:00.384Z,928.67
2018-05-16T02:33:12.894Z,928.69
2018-05-16T02:33:25.370Z,928.65
2018-05-16T02:33:38.390Z,928.65
2018-05-16T02:33:51.363Z,928.64
2018-05-16T02:34:03.870Z,928.69
2018-05-16T02:34:15.860Z,928.65
2018-05-16T02:34:27.910Z,928.65
2018-05-16T02:34:40.846Z,928.66
2018-05-16T02:34:53.398Z,928.65
2018-05-16T02:35:05.453Z,928.65
2018-05-16T02:35:17.987Z,928.63
2018-05-16T02:35:30.498Z,928.62
2018-05-16T02:35:42.995Z,928.62
2018-05-16T02:35:56.814Z,928.61
2018-05-16T02:36:09.274Z,928.61
2018-05-16T02:36:21.790Z,928.63
2018-05-16T02:36:33.797Z,928.61
2018-05-16T02:36:46.716Z,928.63
2018-05-16T02:36:59.647Z,928.61
2018-05-16T02:37:12.168Z,928.62
2018-05-16T02:37:25.427Z,928.61
2018-05-16T02:37:38.619Z,928.61
2018-05-16T02:37:51.106Z,928.62
2018-05-16T02:38:02.675Z,928.6